Terminal Aerodrome Forecast
Issued by NWS

Current Version | Previous Version | Text Only | Print | Product List | Glossary On
Versions: 1 2 3 4 5 6 7 8 9 10 11 12 13 14
000
FTUS42 KTBW 252300
TAFLAL
TAF
KLAL 252330Z 2600/2624 26005KT P6SM VCSH SCT025 BKN250
     FM260200 VRB02KT P6SM FEW020 SCT250
     FM261400 25005KT P6SM SCT030 SCT100
     FM261600 27008KT P6SM VCTS SCT035CB BKN150
      AMD NOT SKED TIL 261200=

USA.gov is the U.S. government's official web portal to all federal, state and local government web resources and services.